• Join FlightAware (Why Join?)
  • Login
  • US Flag 
08:52PM EDT


 

Airport Tracker/Info


-or-


 

Live Flight TrackerFlight Track Log ✈ CTL13 ✈ 04-Apr-2013 ✈ KMDW - KGRR

Flight Track Log - Related Links

Times and Time Zones

All times are in EDT time to prevent confusion due to time zone crossing. See the CTL13 flight status page for this flight to view local times or setup timezone preferences in your user account.

Time Position Orientation Groundspeed Altitude Reporting Facility
EDT Latitude Longitude Course Direction KTS MPH feet Rate Location/Type
10:27PM 41.8000 -87.7333 93° East 150 173 1,700  Level Chicago TRACON
10:28PM 41.7833 -87.6833 114° Southeast 156 180 2,900 1,140 Climbing Chicago TRACON
10:29PM 41.7833 -87.6333 90° East 152 175 4,200 1,260 Climbing Chicago TRACON
10:30PM 41.7739 -87.6125 121° Southeast 153 176 4,500 480 Climbing Chicago Center
10:31PM 41.7750 -87.5547 89° East 161 185 4,900 300 Climbing Chicago Center
10:32PM 41.7792 -87.4858 85° East 178 205 5,200 360 Climbing Chicago Center
10:33PM 41.7794 -87.3780 93° East  Level FlightAware Approximate
10:33PM 41.7828 -87.4186 86° East 182 209 5,700  Level Chicago Center
10:34PM 41.7867 -87.3539 85° East 177 204 6,100 540 Climbing Chicago Center
10:35PM 41.7864 -87.2944 90° East 163 188 6,900 360 Climbing Chicago Center
10:36PM 41.7856 -87.2167 91° East 175 201 6,900  Level Chicago Center
10:37PM 41.7833 -87.1475 92° East 186 214 6,900  Level Chicago Center
10:38PM 41.7814 -87.0808 92° East 182 209 6,900  Level Chicago Center
10:39PM 41.7986 -87.0272 67° East 173 199 7,000 60 Climbing Chicago Center
10:40PM 41.8322 -86.9839 44° Northeast 166 191 7,100  Climbing Chicago Center
10:41PM 41.8647 -86.9394 46° Northeast 169 194 7,000 -60 Descending Chicago Center
10:42PM 41.8972 -86.8939 46° Northeast 169 194 7,000  Level Chicago Center
10:43PM 41.9303 -86.8489 45° Northeast 170 196 7,000  Level Chicago Center
10:44PM 41.9708 -86.7944 45° Northeast 173 199 7,000  Level Chicago Center
10:45PM 42.0017 -86.7453 50° Northeast 173 199 7,000  Level Chicago Center
10:46PM 42.0358 -86.7011 44° Northeast 171 197 7,000  Level Chicago Center
10:47PM 42.0678 -86.6558 46° Northeast 171 197 7,000  Level Chicago Center
10:48PM 42.1006 -86.6092 47° Northeast 173 199 7,000  Level Chicago Center
10:49PM 42.1339 -86.5617 47° Northeast 173 199 7,000  Level Chicago Center
10:50PM 42.1667 -86.5150 47° Northeast 173 199 7,000  Level Chicago Center
10:51PM 42.2000 -86.4683 46° Northeast 173 199 7,000  Level Chicago Center
10:52PM 42.2400 -86.4125 46° Northeast 173 199 7,000  Level Chicago Center
10:53PM 42.2733 -86.3672 45° Northeast 171 197 7,000  Level Chicago Center
10:54PM 42.3042 -86.3244 46° Northeast 171 197 7,000  Level Chicago Center
10:55PM 42.3394 -86.2794 43° Northeast 173 199 7,000  Level Chicago Center
10:56PM 42.3733 -86.2336 45° Northeast 173 199 7,000  Level Chicago Center
10:57PM 42.4086 -86.1867 44° Northeast 175 201 7,000  Level Chicago Center
10:58PM 42.4522 -86.1281 45° Northeast 183 211 7,000  Level Chicago Center
10:59PM 42.4858 -86.0794 47° Northeast 180 207 7,000  Level Chicago Center
11:00PM 42.5197 -86.0289 48° Northeast 181 208 7,000  Level Chicago Center
11:01PM 42.5550 -85.9794 46° Northeast 182 209 7,000 -540 Level Chicago Center
11:02PM 42.5914 -85.9244 48° Northeast 191 220 6,000 -900 Descending Chicago Center
11:03PM 42.6311 -85.8678 46° Northeast 203 234 5,200 -840 Descending Chicago Center
11:04PM 42.6697 -85.8153 45° Northeast 200 230 4,400 -840 Descending Chicago Center
11:05PM 42.7081 -85.7642 44° Northeast 196 226 3,500 -840 Descending Chicago Center
11:07PM 42.7539 -85.7047 44° Northeast 192 221 2,700 -480 Descending Chicago Center
11:08PM 42.7892 -85.6550 46° Northeast 188 216 2,600 -300 Descending Chicago Center
11:09PM 42.8253 -85.6189 36° Northeast 176 203 2,200 -420 Descending Chicago Center
11:10PM 42.8617 -85.5847 35° Northeast 167 192 1,800 -660 Descending Chicago Center
11:11PM 42.8764 -85.5447 63° Northeast 140 161 900 -900 Descending Chicago Center
11:13PM 42.8667 -85.5167 56° Northeast  Level FlightAware Approximate